Time;durP1;ratioP1;P1;durP2;ratioP2;P2;SDS_P1;SDS_P2;PMS_P1;PMS_P2;Temp;Humidity;BMP_temperature;BMP_pressure;BME280_temperature;BME280_humidity;BME280_pressure;Samples;Min_cycle;Max_cycle;Signal;HPM_P1;HPM_P2
2021/12/28 00:00:17;;;;;;;;;;;;;;;13.15;61.98;99062.06;1038426;28;1847;-57
2021/12/28 00:01:08;;;;;;;;;;;;;;;13.14;61.96;99063.03;1036350;28;1129;-59
2021/12/28 00:01:58;;;;;;;;;;;;;;;13.13;61.86;99050.66;1036386;28;708;-59
2021/12/28 00:02:49;;;;;;;;;;;;;;;13.13;61.26;99048.00;1036851;28;864;-59
2021/12/28 00:03:40;;;;;;;;;;;;;;;13.12;61.61;99044.47;1036422;28;778;-59
2021/12/28 00:04:31;;;;;;;;;;;;;;;13.14;61.18;99052.34;1036543;28;841;-59
2021/12/28 00:05:21;;;;;;;;;;;;;;;13.13;62.12;99046.16;1036721;28;871;-59
2021/12/28 00:06:12;;;;;;;;;;;;;;;13.13;61.27;99051.50;1037212;28;649;-59
2021/12/28 00:07:02;;;;;;;;;;;;;;;13.15;61.55;99049.53;1037174;28;842;-59
2021/12/28 00:07:53;;;;;;;;;;;;;;;13.14;62.11;99047.84;1037156;28;630;-59
2021/12/28 00:08:43;;;;;;;;;;;;;;;13.13;62.01;99050.66;1037278;28;734;-61
2021/12/28 00:09:33;;;;;;;;;;;;;;;13.12;61.24;99052.50;1037357;28;1893;-61
2021/12/28 00:10:24;;;;;;;;;;;;;;;13.13;61.55;99053.34;1037040;28;1013;-61
2021/12/28 00:11:14;;;;;;;;;;;;;;;13.13;61.31;99064.03;1037228;28;921;-61
2021/12/28 00:12:05;;;;;;;;;;;;;;;13.12;62.20;99054.34;1037068;28;770;-61
2021/12/28 00:12:55;;;;;;;;;;;;;;;13.12;62.17;99055.16;1037318;28;641;-61
2021/12/28 00:13:46;;;;;;;;;;;;;;;13.13;61.48;99064.03;1036936;28;815;-60
2021/12/28 00:14:38;;;;;;;;;;;;;;;13.12;61.39;99060.53;1037635;28;725;-60
2021/12/28 00:15:37;;;;;;;;;;;;;;;13.12;61.88;99059.69;1036839;28;886;-61
2021/12/28 00:16:31;;;;;;;;;;;;;;;13.13;61.52;99064.88;1036994;28;775;-59
2021/12/28 00:18:31;;;;;;;;;;;;;;;13.13;61.96;99056.00;1037684;28;768;-59
2021/12/28 00:19:21;;;;;;;;;;;;;;;13.12;61.84;99062.34;1038156;28;645;-60
2021/12/28 00:20:12;;;;;;;;;;;;;;;13.12;61.86;99049.81;1037662;28;719;-59
2021/12/28 00:21:02;;;;;;;;;;;;;;;13.12;62.20;99057.84;1036679;28;705;-59
2021/12/28 00:21:53;;;;;;;;;;;;;;;13.12;61.38;99048.97;1037209;28;837;-59
2021/12/28 00:22:43;;;;;;;;;;;;;;;13.11;61.43;99052.66;1037798;28;700;-61
2021/12/28 00:23:39;;;;;;;;;;;;;;;13.10;61.43;99054.50;1037572;28;701;-60
2021/12/28 00:24:29;;;;;;;;;;;;;;;13.11;61.96;99056.16;1037565;28;724;-60
2021/12/28 00:25:20;;;;;;;;;;;;;;;13.10;61.57;99048.31;1037418;28;992;-59
2021/12/28 00:26:13;;;;;;;;;;;;;;;13.10;61.30;99049.13;1037656;28;811;-58
2021/12/28 00:27:03;;;;;;;;;;;;;;;13.10;62.29;99053.66;1038195;28;665;-58
2021/12/28 00:27:54;;;;;;;;;;;;;;;13.12;62.00;99054.34;1037603;28;960;-58
2021/12/28 00:28:44;;;;;;;;;;;;;;;13.11;62.01;99048.16;1036644;28;768;-58
2021/12/28 00:29:35;;;;;;;;;;;;;;;13.11;61.58;99049.97;1037531;28;748;-58
2021/12/28 00:30:25;;;;;;;;;;;;;;;13.12;62.16;99049.81;1037678;28;796;-58
2021/12/28 00:31:15;;;;;;;;;;;;;;;13.12;61.81;99048.97;1037401;28;744;-59
2021/12/28 00:32:06;;;;;;;;;;;;;;;13.10;62.29;99051.81;1037532;28;774;-58
2021/12/28 00:32:56;;;;;;;;;;;;;;;13.11;62.23;99053.50;1041148;28;1726;-58
2021/12/28 00:33:47;;;;;;;;;;;;;;;13.10;62.17;99050.97;1041717;28;633;-59
2021/12/28 00:34:37;;;;;;;;;;;;;;;13.10;61.37;99050.97;1041621;28;1883;-58
2021/12/28 00:35:28;;;;;;;;;;;;;;;13.10;62.10;99056.31;1042188;28;759;-58
2021/12/28 00:36:18;;;;;;;;;;;;;;;13.10;61.44;99050.97;1042199;28;897;-59
2021/12/28 00:37:08;;;;;;;;;;;;;;;13.09;61.88;99049.31;1039907;28;1635;-59
2021/12/28 00:37:59;;;;;;;;;;;;;;;13.11;62.39;99055.34;1037572;28;641;-59
2021/12/28 00:38:49;;;;;;;;;;;;;;;13.10;61.35;99046.47;1037658;28;724;-59
2021/12/28 00:39:40;;;;;;;;;;;;;;;13.10;61.48;99050.97;1037490;28;700;-61
2021/12/28 00:40:30;;;;;;;;;;;;;;;13.09;61.90;99044.78;1037403;28;1034;-59
2021/12/28 00:41:20;;;;;;;;;;;;;;;13.10;61.88;99045.63;1037445;28;700;-59
2021/12/28 00:42:11;;;;;;;;;;;;;;;13.10;62.25;99040.28;1037665;28;783;-59
2021/12/28 00:43:01;;;;;;;;;;;;;;;13.09;62.25;99042.13;1037658;28;763;-61
2021/12/28 00:43:52;;;;;;;;;;;;;;;13.10;62.21;99046.47;1037482;28;598;-59
2021/12/28 00:44:42;;;;;;;;;;;;;;;13.10;62.29;99037.59;1037538;28;806;-60
2021/12/28 00:45:33;;;;;;;;;;;;;;;13.10;62.23;99042.94;1039735;28;1383;-59
2021/12/28 00:46:23;;;;;;;;;;;;;;;13.09;61.59;99041.28;1041547;28;717;-60
2021/12/28 00:47:13;;;;;;;;;;;;;;;13.09;62.10;99041.28;1041539;28;693;-59
2021/12/28 00:48:04;;;;;;;;;;;;;;;13.08;62.36;99040.44;1041620;28;613;-59
2021/12/28 00:48:54;;;;;;;;;;;;;;;13.09;62.03;99035.94;1041676;28;830;-60
2021/12/28 00:49:45;;;;;;;;;;;;;;;13.09;62.27;99033.25;1041559;28;641;-59
2021/12/28 00:50:35;;;;;;;;;;;;;;;13.08;61.75;99040.44;1041656;28;744;-60
2021/12/28 00:51:26;;;;;;;;;;;;;;;13.09;62.18;99034.09;1041452;28;788;-59
2021/12/28 00:52:16;;;;;;;;;;;;;;;13.09;62.39;99039.44;1041835;28;819;-60
2021/12/28 00:53:06;;;;;;;;;;;;;;;13.08;62.16;99039.59;1041767;28;947;-60
2021/12/28 00:53:57;;;;;;;;;;;;;;;13.08;62.08;99034.25;1042108;28;714;-60
2021/12/28 00:54:47;;;;;;;;;;;;;;;13.09;62.45;99038.59;1041668;28;708;-59
2021/12/28 00:55:38;;;;;;;;;;;;;;;13.07;61.92;99038.78;1041482;28;1454;-60
2021/12/28 00:56:28;;;;;;;;;;;;;;;13.09;61.70;99039.44;1042251;28;800;-59
2021/12/28 00:57:19;;;;;;;;;;;;;;;13.08;61.94;99031.56;1042113;28;856;-60
2021/12/28 00:58:09;;;;;;;;;;;;;;;13.08;62.04;99036.91;1042131;28;613;-60
2021/12/28 00:58:59;;;;;;;;;;;;;;;13.09;61.96;99033.25;1042118;28;856;-60
2021/12/28 00:59:50;;;;;;;;;;;;;;;13.07;62.58;99030.78;1042044;28;659;-60
2021/12/28 01:00:40;;;;;;;;;;;;;;;13.09;62.26;99035.94;1042091;28;777;-60
2021/12/28 01:01:31;;;;;;;;;;;;;;;13.08;61.97;99036.91;1041977;28;859;-60
2021/12/28 01:02:21;;;;;;;;;;;;;;;13.09;61.73;99041.28;1037766;28;815;-60
2021/12/28 01:03:11;;;;;;;;;;;;;;;13.09;62.67;99038.59;1038441;28;637;-60
2021/12/28 01:04:02;;;;;;;;;;;;;;;13.08;62.53;99035.09;1040860;28;646;-60
2021/12/28 01:04:52;;;;;;;;;;;;;;;13.08;62.66;99042.28;1041569;28;677;-60
2021/12/28 01:05:43;;;;;;;;;;;;;;;13.07;61.96;99041.47;1041420;28;813;-60
2021/12/28 01:06:33;;;;;;;;;;;;;;;13.07;61.87;99035.28;1041515;28;701;-60
2021/12/28 01:07:23;;;;;;;;;;;;;;;13.06;62.69;99028.25;1041374;28;794;-61
2021/12/28 01:08:14;;;;;;;;;;;;;;;13.06;61.81;99033.59;1041524;28;776;-59
2021/12/28 01:09:04;;;;;;;;;;;;;;;13.06;61.83;99029.09;1041633;28;717;-60
2021/12/28 01:09:55;;;;;;;;;;;;;;;13.06;62.63;99034.44;1036529;28;841;-60
2021/12/28 01:10:45;;;;;;;;;;;;;;;13.06;62.86;99023.75;1037199;28;653;-60
2021/12/28 01:11:36;;;;;;;;;;;;;;;13.07;61.79;99030.78;1041356;28;854;-60
2021/12/28 01:12:26;;;;;;;;;;;;;;;13.07;61.90;99029.94;1041499;28;711;-60
2021/12/28 01:13:16;;;;;;;;;;;;;;;13.06;62.28;99028.25;1041219;28;1973;-61
2021/12/28 01:14:07;;;;;;;;;;;;;;;13.07;62.25;99027.25;1041422;28;1250;-60
2021/12/28 01:14:57;;;;;;;;;;;;;;;13.07;61.90;99024.59;1041847;28;1959;-60
2021/12/28 01:15:48;;;;;;;;;;;;;;;13.07;62.78;99025.41;1040906;28;877;-60
2021/12/28 01:16:38;;;;;;;;;;;;;;;13.05;62.72;99024.75;1040792;28;693;-60
2021/12/28 01:17:29;;;;;;;;;;;;;;;13.06;62.22;99025.56;1040835;28;689;-60
2021/12/28 01:18:19;;;;;;;;;;;;;;;13.05;62.09;99030.09;1040732;28;944;-60
2021/12/28 01:19:09;;;;;;;;;;;;;;;13.05;62.11;99023.91;1041150;28;661;-60
2021/12/28 01:20:00;;;;;;;;;;;;;;;13.05;62.49;99026.56;1040821;28;931;-60
2021/12/28 01:20:51;;;;;;;;;;;;;;;13.06;62.38;99025.56;1041006;28;752;-60
2021/12/28 01:21:41;;;;;;;;;;;;;;;13.06;62.01;99014.88;1041470;28;641;-60
2021/12/28 01:22:32;;;;;;;;;;;;;;;13.05;62.74;99023.91;1040727;28;2421;-60
2021/12/28 01:23:22;;;;;;;;;;;;;;;13.05;62.91;99021.22;1041928;28;698;-61
2021/12/28 01:24:13;;;;;;;;;;;;;;;13.06;62.50;99030.94;1040597;28;786;-60
2021/12/28 01:25:03;;;;;;;;;;;;;;;13.05;62.71;99026.56;1041557;28;693;-60
2021/12/28 01:25:53;;;;;;;;;;;;;;;13.05;62.88;99015.88;1041534;28;667;-60
2021/12/28 01:26:44;;;;;;;;;;;;;;;13.05;62.21;99022.06;1041323;28;820;-60
2021/12/28 01:27:34;;;;;;;;;;;;;;;13.05;62.66;99016.72;1041499;28;739;-60
2021/12/28 01:28:25;;;;;;;;;;;;;;;13.04;62.23;99015.03;1041288;28;801;-60
2021/12/28 01:29:15;;;;;;;;;;;;;;;13.05;62.21;99018.56;1041323;28;708;-61
2021/12/28 01:30:05;;;;;;;;;;;;;;;13.04;62.84;99023.06;1043474;28;1864;-60
2021/12/28 01:30:56;;;;;;;;;;;;;;;13.05;62.74;99018.56;1045620;28;843;-59
2021/12/28 01:31:46;;;;;;;;;;;;;;;13.07;62.91;99021.91;1045574;28;728;-59
2021/12/28 01:32:37;;;;;;;;;;;;;;;13.06;62.96;99025.56;1044812;28;797;-59
2021/12/28 01:33:27;;;;;;;;;;;;;;;13.06;62.28;99025.56;1045494;28;1897;-59
2021/12/28 01:34:17;;;;;;;;;;;;;;;13.05;62.35;99015.88;1045548;28;704;-59
2021/12/28 01:35:08;;;;;;;;;;;;;;;13.05;62.95;99019.38;1042032;28;1060;-59
2021/12/28 01:35:58;;;;;;;;;;;;;;;13.05;62.87;99021.22;1041497;28;669;-59
2021/12/28 01:36:49;;;;;;;;;;;;;;;13.05;62.12;99022.06;1044513;28;1972;-59
2021/12/28 01:37:39;;;;;;;;;;;;;;;13.04;62.36;99024.91;1045629;28;659;-59
2021/12/28 01:38:29;;;;;;;;;;;;;;;13.05;63.10;99023.91;1045467;28;783;-60
2021/12/28 01:39:20;;;;;;;;;;;;;;;13.05;62.21;99018.56;1045469;28;709;-60
2021/12/28 01:40:10;;;;;;;;;;;;;;;13.05;63.17;99015.88;1045620;28;738;-59
2021/12/28 01:41:01;;;;;;;;;;;;;;;13.04;63.02;99019.53;1045416;28;842;-59
2021/12/28 01:41:51;;;;;;;;;;;;;;;13.04;62.75;99016.88;1045603;28;739;-59
2021/12/28 01:42:41;;;;;;;;;;;;;;;13.04;62.44;99016.88;1045384;28;717;-60
2021/12/28 01:43:32;;;;;;;;;;;;;;;13.05;62.23;99015.88;1045474;28;901;-59
2021/12/28 01:44:22;;;;;;;;;;;;;;;13.05;62.54;99018.56;1041769;28;741;-59
2021/12/28 01:45:13;;;;;;;;;;;;;;;13.04;62.52;99012.38;1041071;28;850;-60
2021/12/28 01:46:03;;;;;;;;;;;;;;;13.04;63.12;99015.03;1045472;28;732;-59
2021/12/28 01:46:54;;;;;;;;;;;;;;;13.05;62.64;99015.88;1045374;28;1032;-59
2021/12/28 01:47:44;;;;;;;;;;;;;;;13.05;62.57;99013.19;1045517;28;773;-59
2021/12/28 01:48:34;;;;;;;;;;;;;;;13.03;62.95;99018.72;1045489;28;624;-60
2021/12/28 01:49:25;;;;;;;;;;;;;;;13.05;62.59;99018.56;1045427;28;856;-59
2021/12/28 01:50:15;;;;;;;;;;;;;;;13.04;62.51;99014.19;1045495;28;811;-60
2021/12/28 01:51:06;;;;;;;;;;;;;;;13.04;63.10;99017.72;1044699;28;1970;-59
2021/12/28 01:51:56;;;;;;;;;;;;;;;13.03;63.19;99013.38;1045480;28;630;-59
2021/12/28 01:52:46;;;;;;;;;;;;;;;13.02;62.99;99019.69;1042212;28;1072;-59
2021/12/28 01:53:37;;;;;;;;;;;;;;;13.03;62.69;99017.88;1040517;28;1974;-59
2021/12/28 01:54:27;;;;;;;;;;;;;;;13.04;62.26;99014.19;1040893;28;748;-59
2021/12/28 01:55:18;;;;;;;;;;;;;;;13.03;62.28;99012.53;1040676;28;969;-60
2021/12/28 01:56:08;;;;;;;;;;;;;;;13.03;62.51;99007.16;1040705;28;622;-59
2021/12/28 01:56:58;;;;;;;;;;;;;;;13.03;62.67;99013.38;1040914;28;641;-60
2021/12/28 01:57:49;;;;;;;;;;;;;;;13.03;63.15;99009.84;1040591;28;824;-59
2021/12/28 01:58:39;;;;;;;;;;;;;;;13.04;62.33;99022.22;1040933;28;746;-59
2021/12/28 01:59:30;;;;;;;;;;;;;;;13.03;62.25;99016.03;1040649;28;845;-59
2021/12/28 02:00:20;;;;;;;;;;;;;;;13.04;62.33;99022.22;1040757;28;844;-60
2021/12/28 02:01:11;;;;;;;;;;;;;;;13.03;63.18;99012.53;1040656;28;634;-59
2021/12/28 02:02:01;;;;;;;;;;;;;;;13.02;62.96;99021.53;1040786;28;779;-59
2021/12/28 02:02:51;;;;;;;;;;;;;;;13.02;62.99;99016.19;1040878;28;614;-59
2021/12/28 02:03:43;;;;;;;;;;;;;;;13.01;62.90;99018.03;1040742;28;812;-59
2021/12/28 02:04:33;;;;;;;;;;;;;;;13.03;63.00;99017.88;1040880;28;791;-59
2021/12/28 02:05:24;;;;;;;;;;;;;;;13.03;62.25;99017.88;1040727;28;802;-59
2021/12/28 02:06:14;;;;;;;;;;;;;;;13.03;62.26;99023.22;1041244;28;811;-59
2021/12/28 02:07:05;;;;;;;;;;;;;;;13.02;62.25;99016.19;1041820;28;818;-59
2021/12/28 02:07:55;;;;;;;;;;;;;;;13.02;62.76;99018.88;1041265;28;954;-60
2021/12/28 02:08:45;;;;;;;;;;;;;;;13.01;62.90;99018.03;1041378;28;626;-59
2021/12/28 02:09:37;;;;;;;;;;;;;;;13.02;62.53;99021.53;1041257;28;761;-59
2021/12/28 02:10:28;;;;;;;;;;;;;;;13.02;62.63;99016.19;1042029;28;1810;-58
2021/12/28 02:11:18;;;;;;;;;;;;;;;13.03;63.15;99023.22;1045958;28;778;-59
2021/12/28 02:12:09;;;;;;;;;;;;;;;13.03;62.97;99023.22;1045391;28;759;-59
2021/12/28 02:12:59;;;;;;;;;;;;;;;13.01;62.91;99014.50;1045378;28;676;-59
2021/12/28 02:13:50;;;;;;;;;;;;;;;13.00;62.69;99013.69;1045447;28;699;-60
2021/12/28 02:14:44;;;;;;;;;;;;;;;13.01;63.32;99009.16;1045286;28;830;-59
2021/12/28 02:15:34;;;;;;;;;;;;;;;13.02;62.93;99010.84;1045980;28;838;-59
2021/12/28 02:16:25;;;;;;;;;;;;;;;13.01;63.33;99010.00;1045164;28;787;-60
2021/12/28 02:17:15;;;;;;;;;;;;;;;13.00;62.43;99007.50;1045469;28;716;-60
2021/12/28 02:18:06;;;;;;;;;;;;;;;13.01;63.24;99003.81;1045389;28;751;-59
2021/12/28 02:18:56;;;;;;;;;;;;;;;13.02;63.21;99010.84;1045277;28;657;-59
2021/12/28 02:19:46;;;;;;;;;;;;;;;13.00;63.30;99008.31;1045452;28;708;-59
2021/12/28 02:20:37;;;;;;;;;;;;;;;13.01;62.99;99007.34;1045211;28;752;-59
2021/12/28 02:21:31;;;;;;;;;;;;;;;13.00;62.71;99002.13;1045369;28;693;-60
2021/12/28 02:22:21;;;;;;;;;;;;;;;13.00;63.39;99007.50;1045284;28;2035;-60
2021/12/28 02:23:11;;;;;;;;;;;;;;;13.00;63.47;99002.97;1040570;28;825;-60
2021/12/28 02:24:02;;;;;;;;;;;;;;;13.01;63.53;99006.50;1041055;28;734;-59
2021/12/28 02:24:52;;;;;;;;;;;;;;;13.01;63.46;99003.81;1041258;28;952;-59
2021/12/28 02:25:43;;;;;;;;;;;;;;;13.01;63.53;99001.97;1041222;28;815;-59
2021/12/28 02:26:33;;;;;;;;;;;;;;;12.99;62.86;99000.47;1041677;28;1872;-59
2021/12/28 02:27:23;;;;;;;;;;;;;;;13.00;63.53;98997.63;1041826;28;767;-60
2021/12/28 02:28:14;;;;;;;;;;;;;;;13.00;62.84;99002.13;1040218;28;733;-60
2021/12/28 02:29:04;;;;;;;;;;;;;;;13.00;62.73;99002.13;1040754;28;776;-59
2021/12/28 02:29:55;;;;;;;;;;;;;;;13.01;62.73;98996.63;1040471;28;674;-59
2021/12/28 02:30:45;;;;;;;;;;;;;;;13.00;63.21;99002.97;1040627;28;622;-59
2021/12/28 02:31:36;;;;;;;;;;;;;;;13.01;62.82;98999.31;1040306;28;734;-60
2021/12/28 02:32:26;;;;;;;;;;;;;;;13.01;62.78;98999.31;1040626;28;869;-59
2021/12/28 02:33:17;;;;;;;;;;;;;;;13.01;63.58;99004.66;1040334;28;854;-59
2021/12/28 02:34:07;;;;;;;;;;;;;;;13.02;62.92;98998.31;1041305;28;708;-59
2021/12/28 02:34:58;;;;;;;;;;;;;;;12.99;63.39;99001.31;1040641;28;641;-59
2021/12/28 02:35:48;;;;;;;;;;;;;;;13.00;63.25;98999.47;1040707;28;669;-59
2021/12/28 02:36:39;;;;;;;;;;;;;;;13.01;62.65;98998.47;1040393;28;677;-59
2021/12/28 02:37:29;;;;;;;;;;;;;;;13.00;63.59;98996.78;1040512;28;672;-59
2021/12/28 02:38:20;;;;;;;;;;;;;;;13.00;62.79;98996.78;1040740;28;637;-59
2021/12/28 02:39:10;;;;;;;;;;;;;;;13.00;63.24;98992.28;1041107;28;726;-59
2021/12/28 02:40:00;;;;;;;;;;;;;;;13.00;62.70;98996.78;1040659;28;661;-59
2021/12/28 02:40:51;;;;;;;;;;;;;;;13.00;63.34;98991.44;1041183;28;681;-59
2021/12/28 02:41:41;;;;;;;;;;;;;;;13.00;63.64;98991.44;1042051;28;1749;-58
2021/12/28 02:42:32;;;;;;;;;;;;;;;13.00;63.22;98989.63;1045207;28;798;-59
2021/12/28 02:43:22;;;;;;;;;;;;;;;13.00;62.85;98994.97;1045090;28;888;-59
2021/12/28 02:44:12;;;;;;;;;;;;;;;13.01;62.98;98993.97;1041762;28;724;-59
2021/12/28 02:45:07;;;;;;;;;;;;;;;13.00;62.92;98991.44;1040491;28;629;-60
2021/12/28 02:45:58;;;;;;;;;;;;;;;12.99;63.82;98985.25;1037156;28;1287;-59
2021/12/28 02:46:48;;;;;;;;;;;;;;;12.99;63.32;98982.59;1036873;28;665;-59
2021/12/28 02:47:39;;;;;;;;;;;;;;;12.98;63.17;98975.56;1040271;28;831;-59
2021/12/28 02:48:29;;;;;;;;;;;;;;;12.99;63.10;98982.59;1040573;28;838;-58
2021/12/28 02:49:19;;;;;;;;;;;;;;;13.00;63.06;98984.25;1040693;28;814;-58
2021/12/28 02:50:10;;;;;;;;;;;;;;;13.00;63.69;98980.75;1040461;28;849;-58
2021/12/28 02:51:00;;;;;;;;;;;;;;;12.99;63.83;98985.25;1040760;28;661;-58
2021/12/28 02:51:51;;;;;;;;;;;;;;;13.00;63.91;98988.78;1040388;28;852;-58
2021/12/28 02:52:41;;;;;;;;;;;;;;;13.00;63.52;98978.06;1040597;28;699;-59
2021/12/28 02:53:31;;;;;;;;;;;;;;;13.00;62.96;98978.06;1040590;28;1985;-58
2021/12/28 02:54:22;;;;;;;;;;;;;;;12.98;63.85;98978.22;1040436;28;801;-59
2021/12/28 02:55:12;;;;;;;;;;;;;;;12.98;63.66;98988.09;1040639;28;899;-58
2021/12/28 02:56:03;;;;;;;;;;;;;;;12.99;63.84;98984.41;1040504;28;784;-58
2021/12/28 02:56:53;;;;;;;;;;;;;;;12.99;63.17;98985.25;1040580;28;775;-59
2021/12/28 02:57:44;;;;;;;;;;;;;;;12.99;63.23;98984.41;1040735;28;685;-58
2021/12/28 02:58:34;;;;;;;;;;;;;;;12.98;63.80;98978.22;1040455;28;785;-59
2021/12/28 02:59:24;;;;;;;;;;;;;;;12.98;63.43;98980.91;1040643;28;747;-59
2021/12/28 03:00:15;;;;;;;;;;;;;;;12.99;63.97;98981.75;1040362;28;919;-59
2021/12/28 03:01:05;;;;;;;;;;;;;;;12.99;63.89;98977.25;1040602;28;614;-58
2021/12/28 03:01:56;;;;;;;;;;;;;;;12.99;62.90;98973.72;1041572;28;739;-59
2021/12/28 03:02:46;;;;;;;;;;;;;;;12.99;62.92;98979.06;1040904;28;1892;-59
2021/12/28 03:03:36;;;;;;;;;;;;;;;13.00;63.70;98980.75;1041216;28;653;-59
2021/12/28 03:04:27;;;;;;;;;;;;;;;12.99;62.97;98974.56;1040965;28;958;-59
2021/12/28 03:05:18;;;;;;;;;;;;;;;12.98;63.25;98978.22;1041185;28;770;-59
2021/12/28 03:06:08;;;;;;;;;;;;;;;12.99;63.92;98974.56;1041192;28;648;-59
2021/12/28 03:06:59;;;;;;;;;;;;;;;12.98;63.50;98972.88;1041110;28;874;-59
2021/12/28 03:07:50;;;;;;;;;;;;;;;12.98;63.13;98964.88;1040782;28;2208;-59
2021/12/28 03:08:40;;;;;;;;;;;;;;;12.98;63.53;98961.34;1040181;28;833;-59
2021/12/28 03:09:31;;;;;;;;;;;;;;;12.98;63.61;98969.38;1040170;28;708;-59
2021/12/28 03:10:21;;;;;;;;;;;;;;;12.97;63.36;98965.03;1040339;28;1034;-59
2021/12/28 03:11:12;;;;;;;;;;;;;;;12.97;63.16;98962.34;1040919;28;775;-59
2021/12/28 03:12:02;;;;;;;;;;;;;;;12.97;63.32;98962.34;1040374;28;787;-60
2021/12/28 03:12:53;;;;;;;;;;;;;;;12.97;63.64;98963.19;1040638;28;896;-59
2021/12/28 03:13:43;;;;;;;;;;;;;;;12.98;63.66;98972.06;1040479;28;1893;-59
2021/12/28 03:14:33;;;;;;;;;;;;;;;12.98;63.25;98958.69;1041103;28;710;-59
2021/12/28 03:15:24;;;;;;;;;;;;;;;12.97;63.87;98965.88;1040432;28;750;-59
2021/12/28 03:16:14;;;;;;;;;;;;;;;12.98;63.96;98966.69;1040542;28;618;-59
2021/12/28 03:17:05;;;;;;;;;;;;;;;12.98;63.72;98964.03;1040660;28;918;-60
2021/12/28 03:17:55;;;;;;;;;;;;;;;12.97;63.25;98963.19;1040381;28;716;-60
2021/12/28 03:18:45;;;;;;;;;;;;;;;12.98;63.86;98962.19;1040686;28;646;-60
2021/12/28 03:19:36;;;;;;;;;;;;;;;12.97;63.38;98952.50;1040491;28;735;-60
2021/12/28 03:20:26;;;;;;;;;;;;;;;12.97;64.02;98957.84;1040478;28;809;-60
2021/12/28 03:21:17;;;;;;;;;;;;;;;12.97;63.56;98959.69;1040618;28;913;-60
2021/12/28 03:22:07;;;;;;;;;;;;;;;12.97;63.57;98965.03;1040463;28;758;-60
2021/12/28 03:22:57;;;;;;;;;;;;;;;12.96;63.35;98958.84;1040622;28;708;-60
2021/12/28 03:23:48;;;;;;;;;;;;;;;12.97;63.99;98951.66;1040457;28;637;-60
2021/12/28 03:24:38;;;;;;;;;;;;;;;12.97;63.82;98951.66;1040492;28;729;-60
2021/12/28 03:25:29;;;;;;;;;;;;;;;12.97;64.17;98948.97;1041140;28;1992;-60
2021/12/28 03:26:19;;;;;;;;;;;;;;;12.96;63.56;98960.66;1045176;28;743;-60
2021/12/28 03:27:09;;;;;;;;;;;;;;;12.97;63.27;98948.97;1045208;28;634;-60
2021/12/28 03:28:00;;;;;;;;;;;;;;;12.96;63.58;98948.16;1045133;28;681;-59
2021/12/28 03:28:50;;;;;;;;;;;;;;;12.96;64.00;98947.31;1045243;28;724;-59
2021/12/28 03:29:41;;;;;;;;;;;;;;;12.96;63.97;98945.47;1044922;28;806;-59
2021/12/28 03:30:31;;;;;;;;;;;;;;;12.97;63.82;98943.63;1041355;28;642;-59
2021/12/28 03:31:22;;;;;;;;;;;;;;;12.96;63.79;98944.63;1040770;28;785;-60
2021/12/28 03:32:12;;;;;;;;;;;;;;;12.97;64.17;98938.28;1045079;28;658;-59
2021/12/28 03:33:02;;;;;;;;;;;;;;;12.98;63.39;98934.63;1045206;28;719;-59
2021/12/28 03:33:53;;;;;;;;;;;;;;;12.97;64.09;98930.25;1045125;28;879;-59
2021/12/28 03:34:43;;;;;;;;;;;;;;;12.95;64.05;98934.94;1045298;28;830;-59
2021/12/28 03:35:34;;;;;;;;;;;;;;;12.95;63.86;98934.94;1045126;28;740;-59
2021/12/28 03:36:24;;;;;;;;;;;;;;;12.95;63.36;98934.94;1045126;28;692;-59
2021/12/28 03:37:14;;;;;;;;;;;;;;;12.95;64.20;98938.44;1045143;28;669;-59
2021/12/28 03:38:05;;;;;;;;;;;;;;;12.96;63.56;98932.09;1041871;28;1820;-59
2021/12/28 03:38:55;;;;;;;;;;;;;;;12.97;63.72;98935.63;1041035;28;2033;-60
2021/12/28 03:39:46;;;;;;;;;;;;;;;12.97;63.86;98927.59;1040673;28;653;-59
2021/12/28 03:40:36;;;;;;;;;;;;;;;12.97;63.89;98927.59;1041037;28;1446;-59
2021/12/28 03:41:26;;;;;;;;;;;;;;;12.96;63.87;98920.56;1041355;28;771;-59
2021/12/28 03:42:17;;;;;;;;;;;;;;;12.96;64.21;98921.41;1041112;28;758;-58
2021/12/28 03:43:07;;;;;;;;;;;;;;;12.96;63.72;98926.75;1041745;28;807;-58
2021/12/28 03:43:58;;;;;;;;;;;;;;;12.96;63.52;98932.09;1041300;28;845;-60
2021/12/28 03:44:48;;;;;;;;;;;;;;;12.96;63.48;98917.91;1041158;28;655;-59
2021/12/28 03:45:38;;;;;;;;;;;;;;;12.95;63.59;98914.38;1041279;28;1252;-58
2021/12/28 03:46:29;;;;;;;;;;;;;;;12.95;63.40;98914.38;1041192;28;1157;-59
2021/12/28 03:47:19;;;;;;;;;;;;;;;12.95;63.52;98921.56;1041386;28;691;-59
2021/12/28 03:48:10;;;;;;;;;;;;;;;12.95;63.41;98916.22;1041048;28;925;-58
2021/12/28 03:49:00;;;;;;;;;;;;;;;12.95;63.61;98917.06;1041834;28;609;-59
2021/12/28 03:49:51;;;;;;;;;;;;;;;12.95;63.91;98913.53;1041896;28;787;-58
2021/12/28 03:50:41;;;;;;;;;;;;;;;12.95;63.79;98910.88;1041393;28;705;-58
2021/12/28 03:51:31;;;;;;;;;;;;;;;12.95;63.57;98910.88;1041607;28;759;-58
2021/12/28 03:52:22;;;;;;;;;;;;;;;12.95;63.89;98913.53;1041769;28;847;-58
2021/12/28 03:53:12;;;;;;;;;;;;;;;12.95;64.11;98909.03;1041901;28;634;-59
2021/12/28 03:54:03;;;;;;;;;;;;;;;12.95;63.81;98911.72;1041933;28;688;-59
2021/12/28 03:54:53;;;;;;;;;;;;;;;12.95;63.14;98909.03;1041773;28;720;-59
2021/12/28 03:55:43;;;;;;;;;;;;;;;12.95;63.69;98902.84;1041901;28;729;-58
2021/12/28 03:56:34;;;;;;;;;;;;;;;12.95;63.20;98913.53;1041033;28;922;-59
2021/12/28 03:57:24;;;;;;;;;;;;;;;12.95;63.92;98910.88;1041799;28;734;-59
2021/12/28 03:58:15;;;;;;;;;;;;;;;12.95;63.61;98902.84;1041928;28;658;-59
2021/12/28 03:59:05;;;;;;;;;;;;;;;12.95;63.89;98897.50;1041746;28;665;-58
2021/12/28 03:59:55;;;;;;;;;;;;;;;12.94;63.34;98904.69;1041713;28;701;-59
2021/12/28 04:00:46;;;;;;;;;;;;;;;12.94;63.42;98906.53;1041715;28;823;-58
2021/12/28 04:01:36;;;;;;;;;;;;;;;12.94;63.63;98901.19;1041702;28;726;-59
2021/12/28 04:02:27;;;;;;;;;;;;;;;12.93;63.41;98899.50;1041324;28;712;-58
2021/12/28 04:03:17;;;;;;;;;;;;;;;12.93;63.08;98894.16;1041678;28;704;-59
2021/12/28 04:04:07;;;;;;;;;;;;;;;12.93;64.08;98900.34;1041817;28;653;-59
2021/12/28 04:04:58;;;;;;;;;;;;;;;12.93;63.29;98892.31;1041701;28;914;-59
2021/12/28 04:05:48;;;;;;;;;;;;;;;12.92;63.88;98893.31;1041834;28;837;-58
2021/12/28 04:06:39;;;;;;;;;;;;;;;12.94;63.15;98895.81;1041671;28;693;-59
2021/12/28 04:07:30;;;;;;;;;;;;;;;12.93;63.75;98900.34;1041753;28;748;-59
2021/12/28 04:08:22;;;;;;;;;;;;;;;12.94;63.59;98893.16;1041667;28;781;-58
2021/12/28 04:09:20;;;;;;;;;;;;;;;12.93;63.68;98888.81;1041677;28;877;-59
2021/12/28 04:10:11;;;;;;;;;;;;;;;12.93;63.73;98892.31;1041841;28;614;-59
2021/12/28 04:11:14;;;;;;;;;;;;;;;12.93;63.51;98900.34;1042620;28;1892;-58
2021/12/28 04:12:04;;;;;;;;;;;;;;;12.93;63.66;98892.31;1046521;28;664;-58
2021/12/28 04:12:55;;;;;;;;;;;;;;;12.94;63.90;98901.19;1045979;28;660;-59
2021/12/28 04:13:47;;;;;;;;;;;;;;;12.92;63.00;98890.63;1045782;28;1906;-58
2021/12/28 04:14:37;;;;;;;;;;;;;;;12.93;62.95;98894.16;1046483;28;751;-59
2021/12/28 04:15:28;;;;;;;;;;;;;;;12.93;63.75;98899.50;1045768;28;793;-58
2021/12/28 04:16:18;;;;;;;;;;;;;;;12.94;63.75;98898.50;1045779;28;717;-59
2021/12/28 04:17:09;;;;;;;;;;;;;;;12.92;63.04;98897.81;1045895;28;637;-59
2021/12/28 04:17:59;;;;;;;;;;;;;;;12.92;62.87;98897.81;1045748;28;946;-58
2021/12/28 04:18:49;;;;;;;;;;;;;;;12.92;63.31;98897.81;1045229;28;2116;-61
2021/12/28 04:19:38;;;;;;;;;;;;;;;12.93;63.43;98894.16;1042425;28;752;-59
2021/12/28 04:20:27;;;;;;;;;;;;;;;12.92;63.79;98895.16;1042456;28;818;-59
2021/12/28 04:21:16;;;;;;;;;;;;;;;12.92;63.62;98892.47;1042382;28;861;-60
2021/12/28 04:22:05;;;;;;;;;;;;;;;12.92;63.38;98893.31;1042513;28;833;-60
2021/12/28 04:22:54;;;;;;;;;;;;;;;12.91;63.79;98896.16;1042424;28;610;-60
2021/12/28 04:23:43;;;;;;;;;;;;;;;12.91;63.01;98894.31;1042405;28;767;-60
2021/12/28 04:24:33;;;;;;;;;;;;;;;12.92;63.40;98896.00;1042243;28;745;-60
2021/12/28 04:25:24;;;;;;;;;;;;;;;12.91;63.32;98894.31;1041716;28;1454;-60
2021/12/28 04:26:14;;;;;;;;;;;;;;;12.91;63.01;98890.81;1041632;28;774;-61
2021/12/28 04:27:04;;;;;;;;;;;;;;;12.91;63.63;98896.16;1041805;28;705;-60
2021/12/28 04:27:55;;;;;;;;;;;;;;;12.91;63.18;98888.97;1041636;28;833;-60
2021/12/28 04:28:45;;;;;;;;;;;;;;;12.92;63.69;98898.66;1041725;28;700;-60
2021/12/28 04:29:36;;;;;;;;;;;;;;;12.91;63.61;98880.94;1041753;28;704;-60
2021/12/28 04:30:26;;;;;;;;;;;;;;;12.93;62.77;98896.81;1041647;28;697;-60